Overview Statistics Trail Chart Weather Telemetry Raw packets
 

This is the latest recevied weather packets stored in our database for station/object OE6JVE-13. If no packets are shown the sender has not sent any weather packets the latest 10 day(s).

<< 39 40 41 42 43 44 45 >>
Time Temp. Humidity Pressure Rain* Wind** Luminosity Snow
1788029455 16.67° C 81% 1008.8 hPa 0 mm - - -
1788028863 16.67° C 80% 1008.7 hPa 0 mm - - -
1788028271 17.22° C 80% 1008.7 hPa 0 mm - - -
1788027679 17.22° C 80% 1008.5 hPa 0 mm - - -
1788027021 17.22° C 75% 1008.4 hPa 0 mm - - -
1788026430 17.78° C 75% 1008.1 hPa 0 mm - - -
1788025837 17.78° C 74% 1007.9 hPa 0 mm - - -
1788025244 18.33° C 74% 1007.9 hPa 0 mm - - -
1788024653 18.33° C 73% 1007.9 hPa 0 mm - - -
1788024062 18.89° C 72% 1007.9 hPa 0 mm - - -
1788023470 19.44° C 71% 1007.9 hPa 0 mm - - -
1788022876 19.44° C 69% 1007.9 hPa 0 mm - - -
1788022219 20° C 67% 1007.9 hPa 0 mm - - -
1788019876 21.67° C 58% 1007.8 hPa 0 mm - - -
1788010837 26.11° C 43% 1008.3 hPa 0 mm - - -
1788010243 25° C 47% 1008.4 hPa 0 mm - - -
1788009652 24.44° C 48% 1008.6 hPa 0 mm - - -
1788009087 24.44° C 50% 1008.6 hPa 0 mm - - -
1788008467 24.44° C 50% 1008.8 hPa 0 mm - - -
1788007875 25° C 47% 1008.7 hPa 0 mm - - -
1788007217 25° C 49% 1008.7 hPa 0 mm - - -
1788006625 25.56° C 44% 1008.8 hPa 0 mm - - -
1788006033 25.56° C 46% 1008.8 hPa 0 mm - - -
1788005441 25° C 47% 1008.9 hPa 0 mm - - -
1788004849 25.56° C 48% 1009 hPa 0 mm - - -

* Rain latest hour (hover to see other rain measurements)
** Current wind speed in m/s (hover to see current wind gust speed)